Stations météo

réclame
Mon MeteoGroup
Ernage, Belgique (6459): Température de l'air & dewpoint: 17.09.2017 23:00:00 - 23.09.2017 23:00:00 (CEST)Ernage, Belgique (6459): Vitesse du vent & gusts: 17.09.2017 23:00:00 - 23.09.2017 23:00:00 (CEST)Ernage, Belgique (6459): Direction du vent: 17.09.2017 23:00:00 - 23.09.2017 23:00:00 (CEST)Ernage, Belgique (6459): reduced air pressure: 17.09.2017 23:00:00 - 23.09.2017 23:00:00 (CEST)Ernage, Belgique (6459): Ensoleillement: 17.09.2017 23:00:00 - 23.09.2017 23:00:00 (CEST)Ernage, Belgique (6459): Quantités de précipitations: 17.09.2017 23:00:00 - 23.09.2017 23:00:00 (CEST)
Date & Time tt [°C] td [°C] ff [km/h] ff [knt] fx [km/h] fx [knt] dd ppp [hPa] sd [min] rr [mm]
23.09.2017 23:00:00 9,2 8,2 7 4 - - ENE 1023,2 - -
23.09.2017 22:00:00 9,5 7,7 8 4 10 5 NE 1023,4 0 0,0
23.09.2017 21:00:00 10,1 7,1 6 4 9 5 NE 1023,0 0 0,0
23.09.2017 20:00:00 12,4 7,9 7 4 10 6 NNE 1022,9 22 0,0
23.09.2017 19:00:00 15,2 7,4 9 5 16 9 NE 1022,6 60 0,0
23.09.2017 18:00:00 16,1 5,9 9 5 16 8 NE 1022,6 60 0,0
23.09.2017 17:00:00 16,4 5,3 11 6 22 12 NE 1022,6 60 0,0
23.09.2017 16:00:00 16,7 7,9 11 6 19 10 NE 1023,3 60 0,0
23.09.2017 15:00:00 16,3 8,3 10 6 18 10 NE 1023,8 60 0,0
23.09.2017 14:00:00 15,3 10,1 11 6 17 9 NE 1024,2 60 0,0
23.09.2017 13:00:00 11,9 11,0 11 6 17 9 NE 1024,7 37 0,0
23.09.2017 12:00:00 11,0 11,0 10 5 14 7 ENE 1025,0 0 0,0
23.09.2017 11:00:00 10,4 10,4 7 4 9 5 ENE 1025,2 0 0,0
23.09.2017 10:00:00 9,5 9,5 5 3 8 4 ESE 1024,8 32 0,0
23.09.2017 09:00:00 8,2 8,2 5 3 8 4 ESE 1024,8 10 0,0
23.09.2017 08:00:00 6,7 6,7 4 2 6 4 E 1024,9 0 0,0
23.09.2017 07:00:00 6,1 6,1 4 2 6 3 ESE 1024,7 0 0,0
23.09.2017 06:00:00 5,5 5,5 4 2 5 3 SSE 1024,6 0 0,0
23.09.2017 05:00:00 6,7 6,7 4 2 5 3 E 1024,6 0 0,0
23.09.2017 04:00:00 7,6 7,6 4 2 5 3 W 1024,6 0 0,0
23.09.2017 03:00:00 7,9 7,9 0 0 5 3 N 1024,5 0 0,0
23.09.2017 02:00:00 7,8 7,6 4 2 5 3 SSE 1024,5 0 0,0
23.09.2017 01:00:00 10,0 9,7 0 0 9 5 N 1024,1 0 0,0
23.09.2017 00:00:00 11,1 10,6 6 3 10 6 N 1023,9 0 0,0
22.09.2017 23:00:00 11,5 10,8 8 5 11 6 NNE 1023,8 0 0,0
22.09.2017 22:00:00 12,2 10,9 9 5 14 8 NNW 1023,6 0 0,0
22.09.2017 21:00:00 14,0 12,1 9 5 12 6 NNW 1023,0 0 0,0
22.09.2017 20:00:00 15,1 12,5 4 2 10 5 W 1022,1 0 0,0
22.09.2017 19:00:00 16,4 12,2 6 4 19 10 SW 1021,6 39 0,0
22.09.2017 18:00:00 17,5 12,0 11 6 19 10 WSW 1021,4 44 0,0
22.09.2017 17:00:00 16,6 12,6 11 6 21 12 SW 1021,3 6 0,0
22.09.2017 16:00:00 16,1 12,6 13 7 18 10 WSW 1021,4 0 0,0
22.09.2017 15:00:00 15,5 13,0 15 8 19 10 W 1021,4 0 0,0
22.09.2017 14:00:00 16,1 13,0 7 4 12 6 WSW 1021,1 0 0,0
22.09.2017 13:00:00 15,8 13,1 10 5 14 7 WNW 1021,0 28 0,0
22.09.2017 12:00:00 15,0 12,7 5 3 12 7 SW 1021,0 53 0,0
22.09.2017 11:00:00 13,6 11,7 5 3 8 5 SSE 1020,7 37 0,0
22.09.2017 10:00:00 12,4 10,9 6 3 10 5 S 1020,9 58 0,0
22.09.2017 09:00:00 9,7 9,7 7 4 10 6 S 1020,6 32 0,0
22.09.2017 08:00:00 7,3 7,3 4 2 9 5 SSE 1020,3 0 0,0
22.09.2017 07:00:00 7,0 7,0 5 3 7 4 S 1020,1 0 0,0
22.09.2017 06:00:00 7,4 7,4 4 2 6 3 SSE 1019,7 0 0,0
22.09.2017 05:00:00 7,7 7,7 5 3 8 4 SE 1019,9 0 0,0
22.09.2017 04:00:00 - - - - - - - - - -
22.09.2017 03:00:00 - - - - - - - - 0 -
22.09.2017 02:00:00 8,0 7,9 4 2 5 3 ESE 1020,0 0 0,0
22.09.2017 01:00:00 8,7 8,3 4 2 5 3 E 1019,9 0 0,0
22.09.2017 00:00:00 9,4 8,7 4 2 5 3 E 1019,9 0 0,0
21.09.2017 23:00:00 10,1 8,9 4 2 5 3 ESE 1020,0 0 0,0
21.09.2017 22:00:00 11,2 8,3 4 2 5 3 SSE 1019,8 0 0,0
21.09.2017 21:00:00 13,4 8,2 5 3 8 5 S 1019,5 0 0,0
21.09.2017 20:00:00 14,4 8,8 7 4 9 5 SSE 1018,8 3 0,0
21.09.2017 19:00:00 16,7 8,5 6 4 15 8 S 1018,4 23 0,0
21.09.2017 18:00:00 17,4 8,2 12 6 18 10 SSE 1018,4 60 0,0
21.09.2017 17:00:00 18,2 8,7 11 6 21 11 SSE 1018,4 60 0,0
21.09.2017 16:00:00 18,5 8,0 11 6 22 12 S 1018,7 60 0,0
21.09.2017 15:00:00 17,8 8,4 12 7 21 12 SSE 1019,2 60 0,0
21.09.2017 14:00:00 17,6 8,7 11 6 19 11 S 1019,6 60 0,0
21.09.2017 13:00:00 16,6 9,3 12 6 21 11 S 1020,0 60 0,0
21.09.2017 12:00:00 15,3 9,0 14 8 22 12 S 1020,6 - -
21.09.2017 11:00:00 13,8 9,1 14 7 21 11 SSE 1020,7 60 0,0
21.09.2017 10:00:00 11,7 8,5 12 6 17 9 SSE 1020,8 60 0,0
21.09.2017 09:00:00 9,5 7,5 13 7 19 10 SE 1020,6 60 0,0
21.09.2017 08:00:00 8,6 7,2 14 8 18 10 SSE 1020,6 7 0,0
21.09.2017 07:00:00 8,1 7,1 12 6 17 9 SSE 1020,7 0 0,0
21.09.2017 06:00:00 8,3 7,3 10 6 15 8 SSE 1020,7 0 0,0
21.09.2017 05:00:00 8,5 7,5 9 5 14 7 SSE 1020,7 0 0,0
21.09.2017 04:00:00 8,8 7,5 8 5 14 8 SSE 1021,0 0 0,0
21.09.2017 03:00:00 9,5 7,9 11 6 16 9 SSE 1021,1 0 0,0
21.09.2017 02:00:00 9,1 7,6 7 4 13 7 SSE 1021,4 0 0,0
21.09.2017 01:00:00 9,6 7,9 9 5 15 8 SSE 1021,4 0 0,0
21.09.2017 00:00:00 10,5 8,3 10 5 15 8 SSE 1021,3 0 0,0
20.09.2017 23:00:00 10,9 8,7 9 5 14 8 SSE 1021,4 0 0,0
20.09.2017 22:00:00 11,5 9,0 9 5 15 8 S 1021,0 0 0,0
20.09.2017 21:00:00 11,9 9,0 8 4 11 6 SSE 1021,3 0 0,0
20.09.2017 20:00:00 13,9 9,4 7 4 15 8 S 1020,8 7 0,0
20.09.2017 19:00:00 14,7 9,4 13 7 21 12 SW 1020,6 34 0,0
20.09.2017 18:00:00 15,6 9,4 13 7 23 13 SW 1020,7 47 0,0
20.09.2017 17:00:00 16,5 9,5 17 9 26 14 SW 1021,0 60 0,0
20.09.2017 16:00:00 15,7 9,2 16 8 26 14 SW 1021,2 37 0,0
20.09.2017 15:00:00 16,1 8,6 15 8 27 15 SSW 1021,2 43 0,0
20.09.2017 14:00:00 15,2 10,1 15 8 26 14 SW 1021,6 8 0,0
20.09.2017 13:00:00 15,1 10,5 16 9 28 15 SW 1021,9 58 0,0
20.09.2017 12:00:00 14,4 10,6 16 9 28 15 SW 1022,1 60 0,0
20.09.2017 11:00:00 - - - - - - - - 20 -
20.09.2017 10:00:00 10,8 9,1 14 7 23 12 SSW 1022,3 57 0,0
20.09.2017 09:00:00 9,5 9,1 11 6 15 8 S 1022,3 60 0,0
20.09.2017 08:00:00 9,2 8,7 11 6 15 8 S 1022,0 1 0,0
20.09.2017 07:00:00 9,6 9,5 8 5 13 7 SSW 1021,9 0 0,0
20.09.2017 06:00:00 10,3 10,2 9 5 16 9 SW 1021,9 0 0,0
20.09.2017 05:00:00 10,5 10,5 8 5 15 8 SSW 1021,8 0 0,0
20.09.2017 04:00:00 10,7 10,7 10 6 15 8 SW 1021,9 0 0,0
20.09.2017 03:00:00 10,4 10,4 8 4 12 6 SW 1022,1 0 0,0
20.09.2017 02:00:00 10,2 10,2 7 4 14 8 WSW 1022,3 0 0,0
20.09.2017 01:00:00 10,7 10,7 10 5 14 8 SSW 1022,0 0 0,0
20.09.2017 00:00:00 9,6 9,4 9 5 15 8 W 1022,4 0 0,0
19.09.2017 23:00:00 10,8 10,2 10 5 13 7 W 1022,4 0 0,0
19.09.2017 22:00:00 11,0 9,2 7 4 9 5 W 1021,8 0 0,0
19.09.2017 21:00:00 12,2 10,0 6 3 10 5 NW 1021,4 0 0,0
19.09.2017 20:00:00 14,0 9,5 11 6 15 8 WNW 1020,8 0 0,0
19.09.2017 19:00:00 15,3 9,3 7 4 14 7 NNW 1020,1 15 0,0
19.09.2017 18:00:00 16,5 7,6 11 6 18 10 NW 1019,6 55 0,0
19.09.2017 17:00:00 16,7 8,0 14 8 24 13 NW 1019,2 55 0,0
19.09.2017 16:00:00 16,6 9,1 14 8 24 13 NW 1019,4 47 0,0
19.09.2017 15:00:00 16,0 10,7 13 7 22 12 NW 1019,1 47 0,0
19.09.2017 14:00:00 14,8 10,9 11 6 22 12 W 1019,5 30 0,0
19.09.2017 13:00:00 13,8 10,5 13 7 20 11 W 1019,4 43 0,0
19.09.2017 12:00:00 12,5 10,7 13 7 22 12 W 1019,0 7 0,0
19.09.2017 11:00:00 11,7 10,6 11 6 18 10 W 1018,9 18 0,0
19.09.2017 10:00:00 10,7 10,2 13 7 18 10 W 1018,4 2 0,0
19.09.2017 09:00:00 10,2 10,1 12 6 20 11 W 1017,8 0 0,0
19.09.2017 08:00:00 10,0 10,0 14 8 21 11 W 1017,5 0 0,0
19.09.2017 07:00:00 9,6 9,6 11 6 16 9 WSW 1017,1 0 0,0
19.09.2017 06:00:00 9,6 9,5 11 6 20 11 WSW 1016,9 0 0,0
19.09.2017 05:00:00 9,8 9,8 15 8 24 13 WSW 1016,7 0 0,4
19.09.2017 04:00:00 9,8 9,8 14 7 24 13 SW 1016,9 0 0,0
19.09.2017 03:00:00 9,8 9,8 15 8 23 12 SW 1016,9 0 0,0
19.09.2017 02:00:00 10,0 10,0 11 6 19 10 SW 1016,9 0 0,0
19.09.2017 01:00:00 9,8 9,8 12 6 18 10 SW 1016,6 0 0,0
19.09.2017 00:00:00 9,9 9,8 12 7 18 10 SW 1016,7 0 0,0
18.09.2017 23:00:00 10,1 9,8 11 6 20 11 SW 1016,8 0 0,0
18.09.2017 22:00:00 10,0 9,7 12 6 18 10 SSW 1016,7 0 0,0
18.09.2017 21:00:00 10,5 9,8 11 6 18 10 SW 1016,5 0 0,0
18.09.2017 20:00:00 10,8 9,8 11 6 24 13 SW 1016,0 0 0,0
18.09.2017 19:00:00 12,2 10,1 18 10 27 15 SW 1015,7 28 0,0
18.09.2017 18:00:00 13,1 10,8 20 11 29 16 WSW 1015,1 55 0,0
18.09.2017 17:00:00 12,1 10,5 17 9 32 18 SSW 1015,2 49 0,5
18.09.2017 16:00:00 10,2 9,1 19 10 35 19 SW 1015,6 0 1,2
18.09.2017 15:00:00 13,3 10,7 19 11 32 17 SW 1015,1 14 0,0
18.09.2017 14:00:00 13,8 9,8 18 10 34 18 SSW 1014,9 30 0,0
18.09.2017 13:00:00 13,2 9,6 18 10 28 15 SW 1015,1 16 0,0
18.09.2017 12:00:00 13,0 10,4 17 9 25 13 S 1015,1 37 0,0
18.09.2017 11:00:00 11,9 10,0 15 8 23 13 SSW 1015,3 58 0,0
18.09.2017 10:00:00 10,0 9,6 14 7 20 11 SSW 1015,2 30 0,0
18.09.2017 09:00:00 9,3 9,1 12 7 18 10 S 1014,9 0 0,1
18.09.2017 08:00:00 8,7 8,7 11 6 16 9 SSW 1014,8 0 0,0
18.09.2017 07:00:00 8,6 8,3 10 6 18 10 S 1014,4 0 0,0
18.09.2017 06:00:00 9,1 8,5 12 7 20 11 SSW 1014,2 0 0,0
18.09.2017 05:00:00 8,9 8,3 12 6 17 9 S 1014,2 0 0,0
18.09.2017 04:00:00 8,1 7,5 11 6 16 9 S 1014,4 0 0,0
18.09.2017 03:00:00 8,5 7,7 10 5 16 9 S 1014,3 0 0,0
18.09.2017 02:00:00 8,7 8,2 11 6 13 7 S 1014,4 0 0,0
18.09.2017 01:00:00 8,7 7,7 7 4 12 6 SW 1014,7 0 0,0
18.09.2017 00:00:00 9,9 8,7 8 4 15 8 S 1014,7 0 0,0
17.09.2017 23:00:00 10,8 9,0 9 5 16 9 SW 1014,6 0 0,0

tt = Température de l'air
td = dewpoint
ff = Vitesse du vent
fx = gusts
dd = Direction du vent
ppp = reduced air pressure
sd = Ensoleillement
rr = Quantités de précipitations

stations d'obs. à proximité